sensor_id;sensor_type;location;lat;lon;timestamp;temperature;humidity
5134;DHT22;2585;48.696;10.066;2022-12-19T00:01:32;-5.40;92.80
5134;DHT22;2585;48.696;10.066;2022-12-19T00:04:02;-5.40;92.80
5134;DHT22;2585;48.696;10.066;2022-12-19T00:06:34;-5.40;92.80
5134;DHT22;2585;48.696;10.066;2022-12-19T00:09:01;-5.40;92.80
5134;DHT22;2585;48.696;10.066;2022-12-19T00:11:28;-5.40;92.80
5134;DHT22;2585;48.696;10.066;2022-12-19T00:13:56;-5.40;92.80
5134;DHT22;2585;48.696;10.066;2022-12-19T00:16:28;-5.40;92.80
5134;DHT22;2585;48.696;10.066;2022-12-19T00:18:56;-5.40;92.80
5134;DHT22;2585;48.696;10.066;2022-12-19T00:21:26;-5.30;92.80
5134;DHT22;2585;48.696;10.066;2022-12-19T00:23:53;-5.40;92.80
5134;DHT22;2585;48.696;10.066;2022-12-19T00:26:25;-5.40;92.80
5134;DHT22;2585;48.696;10.066;2022-12-19T00:28:54;-5.40;92.80
5134;DHT22;2585;48.696;10.066;2022-12-19T00:31:23;-5.40;92.80
5134;DHT22;2585;48.696;10.066;2022-12-19T00:33:50;-5.40;92.80
5134;DHT22;2585;48.696;10.066;2022-12-19T00:36:22;-5.40;92.80
5134;DHT22;2585;48.696;10.066;2022-12-19T00:38:50;-5.40;92.80
5134;DHT22;2585;48.696;10.066;2022-12-19T00:41:33;-5.40;92.80
5134;DHT22;2585;48.696;10.066;2022-12-19T00:44:03;-5.40;92.80
5134;DHT22;2585;48.696;10.066;2022-12-19T00:46:31;-5.40;92.80
5134;DHT22;2585;48.696;10.066;2022-12-19T00:48:59;-5.40;92.80
5134;DHT22;2585;48.696;10.066;2022-12-19T00:51:29;-5.40;92.80
5134;DHT22;2585;48.696;10.066;2022-12-19T00:53:59;-5.30;92.80
5134;DHT22;2585;48.696;10.066;2022-12-19T00:56:32;-5.30;92.80
5134;DHT22;2585;48.696;10.066;2022-12-19T00:59:04;-5.30;92.80
5134;DHT22;2585;48.696;10.066;2022-12-19T01:01:33;-5.30;92.80
5134;DHT22;2585;48.696;10.066;2022-12-19T01:04:01;-5.40;92.80
5134;DHT22;2585;48.696;10.066;2022-12-19T01:06:48;-5.30;92.80
5134;DHT22;2585;48.696;10.066;2022-12-19T01:09:16;-5.30;92.80
5134;DHT22;2585;48.696;10.066;2022-12-19T01:11:43;-5.30;92.80
5134;DHT22;2585;48.696;10.066;2022-12-19T01:14:28;-5.30;92.80
5134;DHT22;2585;48.696;10.066;2022-12-19T01:16:55;-5.30;92.80
5134;DHT22;2585;48.696;10.066;2022-12-19T01:19:22;-5.30;92.80
5134;DHT22;2585;48.696;10.066;2022-12-19T01:21:49;-5.30;92.80
5134;DHT22;2585;48.696;10.066;2022-12-19T01:24:15;-5.20;92.80
5134;DHT22;2585;48.696;10.066;2022-12-19T01:26:45;-5.20;92.80
5134;DHT22;2585;48.696;10.066;2022-12-19T01:29:11;-5.20;92.80
5134;DHT22;2585;48.696;10.066;2022-12-19T01:31:38;-5.10;92.80
5134;DHT22;2585;48.696;10.066;2022-12-19T01:34:05;-5.10;92.80
5134;DHT22;2585;48.696;10.066;2022-12-19T01:36:32;-5.10;92.80
5134;DHT22;2585;48.696;10.066;2022-12-19T01:39:05;-5.10;92.80
5134;DHT22;2585;48.696;10.066;2022-12-19T01:41:31;-5.10;92.80
5134;DHT22;2585;48.696;10.066;2022-12-19T01:44:01;-5.10;92.80
5134;DHT22;2585;48.696;10.066;2022-12-19T01:46:45;-5.10;92.80
5134;DHT22;2585;48.696;10.066;2022-12-19T01:51:55;-5.10;92.80
5134;DHT22;2585;48.696;10.066;2022-12-19T01:54:28;-5.10;92.80
5134;DHT22;2585;48.696;10.066;2022-12-19T01:56:56;-5.10;92.80
5134;DHT22;2585;48.696;10.066;2022-12-19T01:59:45;-5.10;92.80
5134;DHT22;2585;48.696;10.066;2022-12-19T02:02:18;-5.10;92.70
5134;DHT22;2585;48.696;10.066;2022-12-19T02:04:47;-5.10;92.70
5134;DHT22;2585;48.696;10.066;2022-12-19T02:07:15;-5.20;92.70
5134;DHT22;2585;48.696;10.066;2022-12-19T02:09:45;-5.10;92.70
5134;DHT22;2585;48.696;10.066;2022-12-19T02:12:18;-5.10;92.70
5134;DHT22;2585;48.696;10.066;2022-12-19T02:14:47;-5.10;92.70
5134;DHT22;2585;48.696;10.066;2022-12-19T02:17:48;-5.10;92.70
5134;DHT22;2585;48.696;10.066;2022-12-19T02:23:13;-5.10;92.70
5134;DHT22;2585;48.696;10.066;2022-12-19T02:26:07;-5.10;92.70
5134;DHT22;2585;48.696;10.066;2022-12-19T02:31:42;-5.10;92.80
5134;DHT22;2585;48.696;10.066;2022-12-19T02:34:35;-5.10;92.80
5134;DHT22;2585;48.696;10.066;2022-12-19T02:37:18;-5.00;92.80
5134;DHT22;2585;48.696;10.066;2022-12-19T02:42:48;-5.00;92.80
5134;DHT22;2585;48.696;10.066;2022-12-19T02:45:17;-5.00;92.80
5134;DHT22;2585;48.696;10.066;2022-12-19T02:47:56;-5.00;92.80
5134;DHT22;2585;48.696;10.066;2022-12-19T02:50:35;-5.00;92.80
5134;DHT22;2585;48.696;10.066;2022-12-19T02:53:02;-4.90;92.80
5134;DHT22;2585;48.696;10.066;2022-12-19T02:55:30;-4.90;92.80
5134;DHT22;2585;48.696;10.066;2022-12-19T02:58:29;-4.90;92.80
5134;DHT22;2585;48.696;10.066;2022-12-19T03:04:07;-4.90;92.80
5134;DHT22;2585;48.696;10.066;2022-12-19T03:06:39;-4.80;92.80
5134;DHT22;2585;48.696;10.066;2022-12-19T03:11:48;-4.90;92.80
5134;DHT22;2585;48.696;10.066;2022-12-19T03:14:18;-4.90;92.80
5134;DHT22;2585;48.696;10.066;2022-12-19T03:16:46;-4.80;92.80
5134;DHT22;2585;48.696;10.066;2022-12-19T03:19:13;-4.90;92.80
5134;DHT22;2585;48.696;10.066;2022-12-19T03:21:47;-4.90;92.80
5134;DHT22;2585;48.696;10.066;2022-12-19T03:24:16;-4.90;92.80
5134;DHT22;2585;48.696;10.066;2022-12-19T03:26:50;-4.90;92.80
5134;DHT22;2585;48.696;10.066;2022-12-19T03:29:29;-4.80;92.80
5134;DHT22;2585;48.696;10.066;2022-12-19T03:32:00;-4.90;92.80
5134;DHT22;2585;48.696;10.066;2022-12-19T03:34:35;-4.90;92.80
5134;DHT22;2585;48.696;10.066;2022-12-19T03:37:06;-4.90;92.80
5134;DHT22;2585;48.696;10.066;2022-12-19T03:39:34;-4.90;92.80
5134;DHT22;2585;48.696;10.066;2022-12-19T03:42:02;-4.90;92.80
5134;DHT22;2585;48.696;10.066;2022-12-19T03:44:49;-4.80;92.80
5134;DHT22;2585;48.696;10.066;2022-12-19T03:47:26;-4.80;92.80
5134;DHT22;2585;48.696;10.066;2022-12-19T03:49:54;-4.80;92.80
5134;DHT22;2585;48.696;10.066;2022-12-19T03:52:35;-4.80;92.80
5134;DHT22;2585;48.696;10.066;2022-12-19T03:55:07;-4.80;92.80
5134;DHT22;2585;48.696;10.066;2022-12-19T03:57:42;-4.80;92.80
5134;DHT22;2585;48.696;10.066;2022-12-19T04:00:14;-4.80;92.90
5134;DHT22;2585;48.696;10.066;2022-12-19T04:02:45;-4.80;92.80
5134;DHT22;2585;48.696;10.066;2022-12-19T04:05:23;-4.80;92.80
5134;DHT22;2585;48.696;10.066;2022-12-19T04:07:54;-4.70;92.90
5134;DHT22;2585;48.696;10.066;2022-12-19T04:10:24;-4.70;92.80
5134;DHT22;2585;48.696;10.066;2022-12-19T04:13:04;-4.80;92.80
5134;DHT22;2585;48.696;10.066;2022-12-19T04:15:50;-4.80;92.80
5134;DHT22;2585;48.696;10.066;2022-12-19T04:18:19;-4.70;92.80
5134;DHT22;2585;48.696;10.066;2022-12-19T04:20:57;-4.70;92.80
5134;DHT22;2585;48.696;10.066;2022-12-19T04:23:30;-4.70;92.90
5134;DHT22;2585;48.696;10.066;2022-12-19T04:26:03;-4.70;92.90
5134;DHT22;2585;48.696;10.066;2022-12-19T04:28:36;-4.70;92.90
5134;DHT22;2585;48.696;10.066;2022-12-19T04:31:04;-4.70;92.90
5134;DHT22;2585;48.696;10.066;2022-12-19T04:33:32;-4.70;92.90
5134;DHT22;2585;48.696;10.066;2022-12-19T04:35:59;-4.60;92.90
5134;DHT22;2585;48.696;10.066;2022-12-19T04:38:26;-4.60;92.90
5134;DHT22;2585;48.696;10.066;2022-12-19T04:40:53;-4.60;92.90
5134;DHT22;2585;48.696;10.066;2022-12-19T04:43:19;-4.50;92.90
5134;DHT22;2585;48.696;10.066;2022-12-19T04:45:46;-4.50;92.90
5134;DHT22;2585;48.696;10.066;2022-12-19T04:48:19;-4.50;92.90
5134;DHT22;2585;48.696;10.066;2022-12-19T04:50:46;-4.50;92.90
5134;DHT22;2585;48.696;10.066;2022-12-19T04:53:13;-4.50;92.90
5134;DHT22;2585;48.696;10.066;2022-12-19T04:55:39;-4.50;92.90
5134;DHT22;2585;48.696;10.066;2022-12-19T04:58:07;-4.50;92.90
5134;DHT22;2585;48.696;10.066;2022-12-19T05:00:33;-4.50;92.90
5134;DHT22;2585;48.696;10.066;2022-12-19T05:03:00;-4.50;92.90
5134;DHT22;2585;48.696;10.066;2022-12-19T05:05:27;-4.40;92.90
5134;DHT22;2585;48.696;10.066;2022-12-19T05:07:54;-4.40;92.90
5134;DHT22;2585;48.696;10.066;2022-12-19T05:10:24;-4.40;92.90
5134;DHT22;2585;48.696;10.066;2022-12-19T05:12:52;-4.40;92.90
5134;DHT22;2585;48.696;10.066;2022-12-19T05:15:19;-4.30;93.00
5134;DHT22;2585;48.696;10.066;2022-12-19T05:17:46;-4.30;92.90
5134;DHT22;2585;48.696;10.066;2022-12-19T05:20:13;-4.30;92.90
5134;DHT22;2585;48.696;10.066;2022-12-19T05:22:40;-4.30;92.90
5134;DHT22;2585;48.696;10.066;2022-12-19T05:25:07;-4.20;93.00
5134;DHT22;2585;48.696;10.066;2022-12-19T05:27:34;-4.30;92.90
5134;DHT22;2585;48.696;10.066;2022-12-19T05:30:00;-4.30;92.90
5134;DHT22;2585;48.696;10.066;2022-12-19T05:32:30;-4.20;93.00
5134;DHT22;2585;48.696;10.066;2022-12-19T05:34:58;-4.20;93.00
5134;DHT22;2585;48.696;10.066;2022-12-19T05:37:25;-4.10;93.00
5134;DHT22;2585;48.696;10.066;2022-12-19T05:39:52;-4.10;93.00
5134;DHT22;2585;48.696;10.066;2022-12-19T05:42:18;-4.20;93.00
5134;DHT22;2585;48.696;10.066;2022-12-19T05:44:45;-4.10;93.00
5134;DHT22;2585;48.696;10.066;2022-12-19T05:47:12;-4.10;93.00
5134;DHT22;2585;48.696;10.066;2022-12-19T05:49:39;-4.10;93.00
5134;DHT22;2585;48.696;10.066;2022-12-19T05:52:05;-4.00;93.10
5134;DHT22;2585;48.696;10.066;2022-12-19T05:54:32;-4.00;93.10
5134;DHT22;2585;48.696;10.066;2022-12-19T05:56:59;-4.00;93.10
5134;DHT22;2585;48.696;10.066;2022-12-19T05:59:26;-4.00;93.10
5134;DHT22;2585;48.696;10.066;2022-12-19T06:01:53;-4.00;93.10
5134;DHT22;2585;48.696;10.066;2022-12-19T06:04:20;-3.90;93.10
5134;DHT22;2585;48.696;10.066;2022-12-19T06:06:47;-3.90;93.10
5134;DHT22;2585;48.696;10.066;2022-12-19T06:09:13;-3.90;93.10
5134;DHT22;2585;48.696;10.066;2022-12-19T06:11:40;-3.90;93.10
5134;DHT22;2585;48.696;10.066;2022-12-19T06:14:07;-3.90;93.10
5134;DHT22;2585;48.696;10.066;2022-12-19T06:16:34;-3.90;93.10
5134;DHT22;2585;48.696;10.066;2022-12-19T06:19:01;-3.90;93.10
5134;DHT22;2585;48.696;10.066;2022-12-19T06:21:27;-3.80;93.20
5134;DHT22;2585;48.696;10.066;2022-12-19T06:23:54;-3.80;93.20
5134;DHT22;2585;48.696;10.066;2022-12-19T06:26:21;-3.80;93.20
5134;DHT22;2585;48.696;10.066;2022-12-19T06:28:49;-3.80;93.20
5134;DHT22;2585;48.696;10.066;2022-12-19T06:31:18;-3.80;93.20
5134;DHT22;2585;48.696;10.066;2022-12-19T06:33:46;-3.80;93.20
5134;DHT22;2585;48.696;10.066;2022-12-19T06:38:39;-3.80;93.20
5134;DHT22;2585;48.696;10.066;2022-12-19T06:41:08;-3.70;93.20
5134;DHT22;2585;48.696;10.066;2022-12-19T06:44:02;-3.70;93.20
5134;DHT22;2585;48.696;10.066;2022-12-19T06:46:29;-3.70;93.20
5134;DHT22;2585;48.696;10.066;2022-12-19T06:48:56;-3.70;93.20
5134;DHT22;2585;48.696;10.066;2022-12-19T06:51:23;-3.60;93.30
5134;DHT22;2585;48.696;10.066;2022-12-19T06:53:51;-3.60;93.30
5134;DHT22;2585;48.696;10.066;2022-12-19T06:56:18;-3.60;93.30
5134;DHT22;2585;48.696;10.066;2022-12-19T06:58:46;-3.60;93.30
5134;DHT22;2585;48.696;10.066;2022-12-19T07:01:18;-3.60;93.30
5134;DHT22;2585;48.696;10.066;2022-12-19T07:03:46;-3.60;93.30
5134;DHT22;2585;48.696;10.066;2022-12-19T07:06:13;-3.60;93.30
5134;DHT22;2585;48.696;10.066;2022-12-19T07:08:40;-3.60;93.30
5134;DHT22;2585;48.696;10.066;2022-12-19T07:11:07;-3.50;93.30
5134;DHT22;2585;48.696;10.066;2022-12-19T07:13:34;-3.50;93.30
5134;DHT22;2585;48.696;10.066;2022-12-19T07:16:02;-3.50;93.30
5134;DHT22;2585;48.696;10.066;2022-12-19T07:18:34;-3.50;93.30
5134;DHT22;2585;48.696;10.066;2022-12-19T07:21:02;-3.50;93.30
5134;DHT22;2585;48.696;10.066;2022-12-19T07:23:29;-3.50;93.30
5134;DHT22;2585;48.696;10.066;2022-12-19T07:25:57;-3.50;93.30
5134;DHT22;2585;48.696;10.066;2022-12-19T07:28:24;-3.50;93.30
5134;DHT22;2585;48.696;10.066;2022-12-19T07:30:50;-3.50;93.30
5134;DHT22;2585;48.696;10.066;2022-12-19T07:33:17;-3.50;93.30
5134;DHT22;2585;48.696;10.066;2022-12-19T07:35:47;-3.50;93.30
5134;DHT22;2585;48.696;10.066;2022-12-19T07:38:14;-3.50;93.30
5134;DHT22;2585;48.696;10.066;2022-12-19T07:40:41;-3.50;93.30
5134;DHT22;2585;48.696;10.066;2022-12-19T07:43:08;-3.40;93.30
5134;DHT22;2585;48.696;10.066;2022-12-19T07:45:38;-3.40;93.30
5134;DHT22;2585;48.696;10.066;2022-12-19T07:48:06;-3.40;93.30
5134;DHT22;2585;48.696;10.066;2022-12-19T07:50:33;-3.30;93.30
5134;DHT22;2585;48.696;10.066;2022-12-19T07:53:00;-3.30;93.30
5134;DHT22;2585;48.696;10.066;2022-12-19T07:55:27;-3.30;93.30
5134;DHT22;2585;48.696;10.066;2022-12-19T07:57:54;-3.30;93.30
5134;DHT22;2585;48.696;10.066;2022-12-19T08:00:22;-3.20;93.30
5134;DHT22;2585;48.696;10.066;2022-12-19T08:02:48;-3.20;93.30
5134;DHT22;2585;48.696;10.066;2022-12-19T08:05:15;-3.20;93.30
5134;DHT22;2585;48.696;10.066;2022-12-19T08:07:42;-3.10;93.40
5134;DHT22;2585;48.696;10.066;2022-12-19T08:10:10;-3.00;93.40
5134;DHT22;2585;48.696;10.066;2022-12-19T08:12:38;-3.00;93.40
5134;DHT22;2585;48.696;10.066;2022-12-19T08:15:05;-3.00;93.40
5134;DHT22;2585;48.696;10.066;2022-12-19T08:17:34;-2.90;93.40
5134;DHT22;2585;48.696;10.066;2022-12-19T08:20:01;-2.90;93.40
5134;DHT22;2585;48.696;10.066;2022-12-19T08:22:28;-2.90;93.40
5134;DHT22;2585;48.696;10.066;2022-12-19T08:24:56;-2.90;93.40
5134;DHT22;2585;48.696;10.066;2022-12-19T08:27:23;-2.90;93.40
5134;DHT22;2585;48.696;10.066;2022-12-19T08:29:50;-2.90;93.40
5134;DHT22;2585;48.696;10.066;2022-12-19T08:32:17;-2.80;93.40
5134;DHT22;2585;48.696;10.066;2022-12-19T08:34:47;-2.80;93.40
5134;DHT22;2585;48.696;10.066;2022-12-19T08:37:14;-2.70;93.40
5134;DHT22;2585;48.696;10.066;2022-12-19T08:39:41;-2.70;93.40
5134;DHT22;2585;48.696;10.066;2022-12-19T08:42:08;-2.70;93.40
5134;DHT22;2585;48.696;10.066;2022-12-19T08:44:35;-2.70;93.30
5134;DHT22;2585;48.696;10.066;2022-12-19T08:47:02;-2.70;93.30
5134;DHT22;2585;48.696;10.066;2022-12-19T08:49:29;-2.70;93.30
5134;DHT22;2585;48.696;10.066;2022-12-19T08:51:56;-2.60;93.30
5134;DHT22;2585;48.696;10.066;2022-12-19T08:54:23;-2.70;93.30
5134;DHT22;2585;48.696;10.066;2022-12-19T08:56:51;-2.60;93.30
5134;DHT22;2585;48.696;10.066;2022-12-19T08:59:17;-2.40;93.40
5134;DHT22;2585;48.696;10.066;2022-12-19T09:02:00;-2.30;93.40
5134;DHT22;2585;48.696;10.066;2022-12-19T09:04:28;-2.30;93.40
5134;DHT22;2585;48.696;10.066;2022-12-19T09:07:15;-2.30;93.40
5134;DHT22;2585;48.696;10.066;2022-12-19T09:09:43;-2.30;93.40
5134;DHT22;2585;48.696;10.066;2022-12-19T09:12:12;-2.30;93.30
5134;DHT22;2585;48.696;10.066;2022-12-19T09:14:39;-2.30;93.30
5134;DHT22;2585;48.696;10.066;2022-12-19T09:17:06;-2.30;93.20
5134;DHT22;2585;48.696;10.066;2022-12-19T09:19:33;-2.30;93.20
5134;DHT22;2585;48.696;10.066;2022-12-19T09:22:00;-2.20;93.20
5134;DHT22;2585;48.696;10.066;2022-12-19T09:24:27;-2.10;93.20
5134;DHT22;2585;48.696;10.066;2022-12-19T09:26:54;-2.10;93.20
5134;DHT22;2585;48.696;10.066;2022-12-19T09:29:20;-2.00;93.20
5134;DHT22;2585;48.696;10.066;2022-12-19T09:31:49;-1.90;93.20
5134;DHT22;2585;48.696;10.066;2022-12-19T09:34:26;-1.90;93.10
5134;DHT22;2585;48.696;10.066;2022-12-19T09:37:09;-1.80;93.10
5134;DHT22;2585;48.696;10.066;2022-12-19T09:39:44;-1.60;93.20
5134;DHT22;2585;48.696;10.066;2022-12-19T09:42:33;-1.50;93.20
5134;DHT22;2585;48.696;10.066;2022-12-19T09:47:59;-1.50;92.90
5134;DHT22;2585;48.696;10.066;2022-12-19T09:55:57;-1.30;92.80
5134;DHT22;2585;48.696;10.066;2022-12-19T09:58:38;-1.20;92.80
5134;DHT22;2585;48.696;10.066;2022-12-19T10:01:21;-1.10;92.60
5134;DHT22;2585;48.696;10.066;2022-12-19T10:04:09;-1.00;92.50
5134;DHT22;2585;48.696;10.066;2022-12-19T10:06:37;-1.00;92.30
5134;DHT22;2585;48.696;10.066;2022-12-19T10:09:31;-1.00;92.00
5134;DHT22;2585;48.696;10.066;2022-12-19T10:21:03;-0.30;91.00
5134;DHT22;2585;48.696;10.066;2022-12-19T10:26:20;-0.10;89.70
5134;DHT22;2585;48.696;10.066;2022-12-19T10:32:02;-0.20;81.90
5134;DHT22;2585;48.696;10.066;2022-12-19T10:34:36;-0.20;81.80
5134;DHT22;2585;48.696;10.066;2022-12-19T10:37:29;-0.20;80.00
5134;DHT22;2585;48.696;10.066;2022-12-19T10:46:01;0.50;68.90
5134;DHT22;2585;48.696;10.066;2022-12-19T10:48:29;0.80;67.60
5134;DHT22;2585;48.696;10.066;2022-12-19T10:50:57;1.20;66.70
5134;DHT22;2585;48.696;10.066;2022-12-19T10:53:32;1.50;62.90
5134;DHT22;2585;48.696;10.066;2022-12-19T10:56:01;1.80;60.10
5134;DHT22;2585;48.696;10.066;2022-12-19T10:58:33;1.80;46.60
5134;DHT22;2585;48.696;10.066;2022-12-19T11:01:13;1.50;38.40
5134;DHT22;2585;48.696;10.066;2022-12-19T11:03:44;1.30;36.30
5134;DHT22;2585;48.696;10.066;2022-12-19T11:18:10;0.90;44.90
5134;DHT22;2585;48.696;10.066;2022-12-19T11:21:03;1.00;46.30
5134;DHT22;2585;48.696;10.066;2022-12-19T11:24:03;0.80;45.60
5134;DHT22;2585;48.696;10.066;2022-12-19T11:26:52;0.90;47.70
5134;DHT22;2585;48.696;10.066;2022-12-19T11:29:45;0.80;48.50
5134;DHT22;2585;48.696;10.066;2022-12-19T11:32:39;0.70;52.00
5134;DHT22;2585;48.696;10.066;2022-12-19T11:37:56;0.50;53.10
5134;DHT22;2585;48.696;10.066;2022-12-19T11:40:46;0.60;60.40
5134;DHT22;2585;48.696;10.066;2022-12-19T11:46:44;0.80;60.80
5134;DHT22;2585;48.696;10.066;2022-12-19T11:49:22;1.00;61.20
5134;DHT22;2585;48.696;10.066;2022-12-19T11:52:22;1.30;61.40
5134;DHT22;2585;48.696;10.066;2022-12-19T11:55:22;1.60;57.80
5134;DHT22;2585;48.696;10.066;2022-12-19T11:57:51;2.00;47.30
5134;DHT22;2585;48.696;10.066;2022-12-19T12:00:21;2.30;41.90
5134;DHT22;2585;48.696;10.066;2022-12-19T12:11:30;2.00;24.60
5134;DHT22;2585;48.696;10.066;2022-12-19T12:14:23;1.60;24.60
5134;DHT22;2585;48.696;10.066;2022-12-19T12:23:28;1.30;35.80
5134;DHT22;2585;48.696;10.066;2022-12-19T12:26:27;1.40;38.10
5134;DHT22;2585;48.696;10.066;2022-12-19T12:29:54;1.30;40.50
5134;DHT22;2585;48.696;10.066;2022-12-19T12:33:03;1.30;47.10
5134;DHT22;2585;48.696;10.066;2022-12-19T12:35:59;1.20;52.90
5134;DHT22;2585;48.696;10.066;2022-12-19T12:41:52;1.10;61.50
5134;DHT22;2585;48.696;10.066;2022-12-19T12:44:36;1.10;64.00
5134;DHT22;2585;48.696;10.066;2022-12-19T12:47:17;1.00;64.70
5134;DHT22;2585;48.696;10.066;2022-12-19T12:52:42;1.00;69.90
5134;DHT22;2585;48.696;10.066;2022-12-19T12:55:31;1.00;69.40
5134;DHT22;2585;48.696;10.066;2022-12-19T12:57:59;0.90;70.10
5134;DHT22;2585;48.696;10.066;2022-12-19T13:00:28;1.00;71.00
5134;DHT22;2585;48.696;10.066;2022-12-19T13:11:14;1.20;71.40
5134;DHT22;2585;48.696;10.066;2022-12-19T13:17:06;1.30;70.90
5134;DHT22;2585;48.696;10.066;2022-12-19T13:19:38;1.30;68.00
5134;DHT22;2585;48.696;10.066;2022-12-19T13:22:20;1.10;67.80
5134;DHT22;2585;48.696;10.066;2022-12-19T13:24:59;1.00;71.10
5134;DHT22;2585;48.696;10.066;2022-12-19T13:27:33;1.00;74.30
5134;DHT22;2585;48.696;10.066;2022-12-19T13:32:32;1.00;77.30
5134;DHT22;2585;48.696;10.066;2022-12-19T13:35:05;0.90;78.20
5134;DHT22;2585;48.696;10.066;2022-12-19T13:38:20;0.90;80.70
5134;DHT22;2585;48.696;10.066;2022-12-19T13:41:27;0.90;80.80
5134;DHT22;2585;48.696;10.066;2022-12-19T13:44:18;0.90;82.40
5134;DHT22;2585;48.696;10.066;2022-12-19T13:46:45;0.90;83.60
5134;DHT22;2585;48.696;10.066;2022-12-19T13:49:28;0.90;84.90
5134;DHT22;2585;48.696;10.066;2022-12-19T13:52:02;1.00;86.00
5134;DHT22;2585;48.696;10.066;2022-12-19T13:54:33;1.00;85.40
5134;DHT22;2585;48.696;10.066;2022-12-19T13:57:02;1.10;86.00
5134;DHT22;2585;48.696;10.066;2022-12-19T13:59:37;1.10;84.60
5134;DHT22;2585;48.696;10.066;2022-12-19T14:02:09;1.10;85.00
5134;DHT22;2585;48.696;10.066;2022-12-19T14:04:40;1.10;84.90
5134;DHT22;2585;48.696;10.066;2022-12-19T14:07:38;1.10;84.80
5134;DHT22;2585;48.696;10.066;2022-12-19T14:10:16;1.00;83.90
5134;DHT22;2585;48.696;10.066;2022-12-19T14:13:05;1.00;84.00
5134;DHT22;2585;48.696;10.066;2022-12-19T14:16:15;0.90;84.10
5134;DHT22;2585;48.696;10.066;2022-12-19T14:18:47;0.80;85.30
5134;DHT22;2585;48.696;10.066;2022-12-19T14:21:21;0.80;87.00
5134;DHT22;2585;48.696;10.066;2022-12-19T14:24:19;0.80;88.30
5134;DHT22;2585;48.696;10.066;2022-12-19T14:26:50;0.80;89.90
5134;DHT22;2585;48.696;10.066;2022-12-19T14:29:45;0.80;90.40
5134;DHT22;2585;48.696;10.066;2022-12-19T14:32:36;0.80;90.60
5134;DHT22;2585;48.696;10.066;2022-12-19T14:35:26;0.80;90.90
5134;DHT22;2585;48.696;10.066;2022-12-19T14:38:21;0.70;91.10
5134;DHT22;2585;48.696;10.066;2022-12-19T14:41:36;0.70;91.50
5134;DHT22;2585;48.696;10.066;2022-12-19T14:44:45;0.70;91.70
5134;DHT22;2585;48.696;10.066;2022-12-19T14:47:37;0.70;92.00
5134;DHT22;2585;48.696;10.066;2022-12-19T14:50:34;0.60;92.00
5134;DHT22;2585;48.696;10.066;2022-12-19T14:53:22;0.50;92.00
5134;DHT22;2585;48.696;10.066;2022-12-19T14:56:10;0.50;92.20
5134;DHT22;2585;48.696;10.066;2022-12-19T14:58:58;0.40;92.50
5134;DHT22;2585;48.696;10.066;2022-12-19T15:01:31;0.40;92.70
5134;DHT22;2585;48.696;10.066;2022-12-19T15:04:04;0.30;92.80
5134;DHT22;2585;48.696;10.066;2022-12-19T15:06:57;0.30;92.90
5134;DHT22;2585;48.696;10.066;2022-12-19T15:09:51;0.20;92.80
5134;DHT22;2585;48.696;10.066;2022-12-19T15:12:59;0.20;92.90
5134;DHT22;2585;48.696;10.066;2022-12-19T15:16:05;0.20;93.00
5134;DHT22;2585;48.696;10.066;2022-12-19T15:18:39;0.10;93.10
5134;DHT22;2585;48.696;10.066;2022-12-19T15:21:11;0.10;93.20
5134;DHT22;2585;48.696;10.066;2022-12-19T15:23:38;0.00;93.20
5134;DHT22;2585;48.696;10.066;2022-12-19T15:26:14;-0.10;93.30
5134;DHT22;2585;48.696;10.066;2022-12-19T15:28:49;-0.10;93.40
5134;DHT22;2585;48.696;10.066;2022-12-19T15:31:38;-0.20;93.50
5134;DHT22;2585;48.696;10.066;2022-12-19T15:37:12;-0.20;93.60
5134;DHT22;2585;48.696;10.066;2022-12-19T15:39:39;-0.20;93.70
5134;DHT22;2585;48.696;10.066;2022-12-19T15:44:44;-0.30;93.70
5134;DHT22;2585;48.696;10.066;2022-12-19T15:47:25;-0.30;93.70
5134;DHT22;2585;48.696;10.066;2022-12-19T15:49:54;-0.30;93.70
5134;DHT22;2585;48.696;10.066;2022-12-19T15:52:21;-0.40;93.70
5134;DHT22;2585;48.696;10.066;2022-12-19T15:54:48;-0.40;93.70
5134;DHT22;2585;48.696;10.066;2022-12-19T15:57:36;-0.50;93.70
5134;DHT22;2585;48.696;10.066;2022-12-19T16:00:06;-0.50;93.80
5134;DHT22;2585;48.696;10.066;2022-12-19T16:02:38;-0.50;93.80
5134;DHT22;2585;48.696;10.066;2022-12-19T16:05:26;-0.60;93.70
5134;DHT22;2585;48.696;10.066;2022-12-19T16:07:55;-0.60;93.80
5134;DHT22;2585;48.696;10.066;2022-12-19T16:10:24;-0.70;93.80
5134;DHT22;2585;48.696;10.066;2022-12-19T16:12:54;-0.70;93.80
5134;DHT22;2585;48.696;10.066;2022-12-19T16:15:25;-0.70;93.80
5134;DHT22;2585;48.696;10.066;2022-12-19T16:17:52;-0.70;93.90
5134;DHT22;2585;48.696;10.066;2022-12-19T16:20:25;-0.80;93.80
5134;DHT22;2585;48.696;10.066;2022-12-19T16:22:54;-0.80;93.80
5134;DHT22;2585;48.696;10.066;2022-12-19T16:25:24;-0.80;93.90
5134;DHT22;2585;48.696;10.066;2022-12-19T16:27:54;-0.90;93.80
5134;DHT22;2585;48.696;10.066;2022-12-19T16:30:26;-0.90;93.90
5134;DHT22;2585;48.696;10.066;2022-12-19T16:32:53;-0.90;93.90
5134;DHT22;2585;48.696;10.066;2022-12-19T16:35:22;-0.90;93.90
5134;DHT22;2585;48.696;10.066;2022-12-19T16:38:09;-0.90;93.90
5134;DHT22;2585;48.696;10.066;2022-12-19T16:40:36;-0.90;93.90
5134;DHT22;2585;48.696;10.066;2022-12-19T16:43:05;-1.00;93.90
5134;DHT22;2585;48.696;10.066;2022-12-19T16:45:36;-1.00;93.90
5134;DHT22;2585;48.696;10.066;2022-12-19T16:48:18;-1.00;93.90
5134;DHT22;2585;48.696;10.066;2022-12-19T16:50:46;-1.00;93.90
5134;DHT22;2585;48.696;10.066;2022-12-19T16:53:14;-1.00;93.90
5134;DHT22;2585;48.696;10.066;2022-12-19T16:55:41;-1.00;93.90
5134;DHT22;2585;48.696;10.066;2022-12-19T16:58:35;-1.00;93.90
5134;DHT22;2585;48.696;10.066;2022-12-19T17:01:09;-1.10;93.80
5134;DHT22;2585;48.696;10.066;2022-12-19T17:03:39;-1.10;93.80
5134;DHT22;2585;48.696;10.066;2022-12-19T17:06:12;-1.10;93.80
5134;DHT22;2585;48.696;10.066;2022-12-19T17:08:39;-1.20;93.80
5134;DHT22;2585;48.696;10.066;2022-12-19T17:11:23;-1.20;93.80
5134;DHT22;2585;48.696;10.066;2022-12-19T17:14:02;-1.20;93.80
5134;DHT22;2585;48.696;10.066;2022-12-19T17:16:30;-1.30;93.70
5134;DHT22;2585;48.696;10.066;2022-12-19T17:18:57;-1.30;93.70
5134;DHT22;2585;48.696;10.066;2022-12-19T17:21:24;-1.30;93.70
5134;DHT22;2585;48.696;10.066;2022-12-19T17:23:51;-1.40;93.70
5134;DHT22;2585;48.696;10.066;2022-12-19T17:26:18;-1.40;93.70
5134;DHT22;2585;48.696;10.066;2022-12-19T17:28:45;-1.40;93.70
5134;DHT22;2585;48.696;10.066;2022-12-19T17:31:22;-1.40;93.80
5134;DHT22;2585;48.696;10.066;2022-12-19T17:33:49;-1.40;93.80
5134;DHT22;2585;48.696;10.066;2022-12-19T17:36:17;-1.50;93.70
5134;DHT22;2585;48.696;10.066;2022-12-19T17:38:51;-1.50;93.70
5134;DHT22;2585;48.696;10.066;2022-12-19T17:41:18;-1.50;93.70
5134;DHT22;2585;48.696;10.066;2022-12-19T17:43:45;-1.50;93.70
5134;DHT22;2585;48.696;10.066;2022-12-19T17:46:20;-1.60;93.70
5134;DHT22;2585;48.696;10.066;2022-12-19T17:48:49;-1.60;93.70
5134;DHT22;2585;48.696;10.066;2022-12-19T17:51:18;-1.60;93.70
5134;DHT22;2585;48.696;10.066;2022-12-19T17:53:45;-1.70;93.70
5134;DHT22;2585;48.696;10.066;2022-12-19T17:56:14;-1.60;93.70
5134;DHT22;2585;48.696;10.066;2022-12-19T17:58:41;-1.70;93.70
5134;DHT22;2585;48.696;10.066;2022-12-19T18:01:26;-1.70;93.70
5134;DHT22;2585;48.696;10.066;2022-12-19T18:03:54;-1.70;93.70
5134;DHT22;2585;48.696;10.066;2022-12-19T18:06:21;-1.70;93.70
5134;DHT22;2585;48.696;10.066;2022-12-19T18:08:48;-1.70;93.70
5134;DHT22;2585;48.696;10.066;2022-12-19T18:11:23;-1.70;93.70
5134;DHT22;2585;48.696;10.066;2022-12-19T18:13:51;-1.70;93.70
5134;DHT22;2585;48.696;10.066;2022-12-19T18:16:24;-1.80;93.70
5134;DHT22;2585;48.696;10.066;2022-12-19T18:18:52;-1.80;93.70